Date,TemperatureHighF,TemperatureAvgF,TemperatureLowF,DewpointHighF,DewpointAvgF,DewpointLowF,HumidityHigh,HumidityAvg,HumidityLow,PressureMaxIn,PressureMinIn,WindSpeedMaxMPH,WindSpeedAvgMPH,GustSpeedMaxMPH,PrecipitationSumIn
2013-1-1,23,20,17,15,13,9,80,74,67,30.08,29.95,17,3,37,0.00
2013-1-2,24,22,20,20,16,13,84,79,72,30.06,29.93,13,2,23,0.00
2013-1-3,28,26,22,23,20,18,87,81,74,30.01,29.90,18,4,31,0.00
2013-1-4,31,26,24,25,21,19,88,81,75,30.05,29.81,20,6,34,0.00
2013-1-5,37,30,19,30,23,14,86,77,63,30.14,29.80,12,3,20,0.04
2013-1-6,34,30,26,30,24,20,85,79,76,30.20,29.75,13,1,32,0.00
2013-1-7,40,32,25,29,23,18,78,70,56,30.20,29.85,23,8,36,0.08
2013-1-8,48,36,28,32,28,24,86,74,51,30.10,29.91,15,3,31,0.11
2013-1-9,38,35,27,31,27,21,80,71,65,30.37,29.75,22,7,34,0.00
2013-1-10,44,31,18,30,22,14,89,70,46,30.49,30.05,15,2,21,0.00
2013-1-11,44,40,35,40,36,24,89,86,60,30.05,29.62,16,6,25,0.30
2013-1-12,53,44,33,45,37,27,89,77,55,29.91,29.59,21,6,35,0.00
2013-1-13,33,30,26,29,27,20,89,87,81,29.92,29.78,11,1,20,0.04
2013-1-14,25,21,17,20,15,10,87,77,61,30.30,29.92,15,3,29,0.00
2013-1-15,27,22,11,17,13,5,80,71,60,30.31,30.00,15,4,29,0.00
2013-1-16,29,25,20,26,19,13,88,80,67,30.00,29.59,19,6,35,0.00
2013-1-17,22,14,12,15,6,0,83,71,57,30.26,29.92,21,6,28,0.00
2013-1-18,37,20,11,32,14,2,87,78,66,30.29,29.68,13,5,22,0.00
2013-1-19,37,33,26,34,29,23,89,87,80,29.77,29.38,27,4,44,0.13
2013-1-20,26,14,9,23,8,3,89,79,68,30.08,29.41,30,10,44,0.00
2013-1-21,10,6,0,6,2,-5,85,82,70,30.01,29.87,21,3,29,0.00
2013-1-22,5,2,-1,0,-2,-5,82,80,74,30.15,29.98,16,5,30,0.00
2013-1-23,12,9,4,8,4,0,85,83,78,30.16,29.96,7,0,34,0.00
2013-1-24,16,3,-11,7,-4,-16,85,75,52,30.57,30.16,0,0,0,0.00
2013-1-25,19,13,5,13,7,-1,84,79,69,30.40,29.90,15,4,20,0.01
2013-1-26,34,18,9,21,12,5,87,78,54,30.34,29.97,6,0,7,0.00
2013-1-27,30,25,17,24,19,12,88,79,67,30.35,29.99,16,4,28,0.00
2013-1-28,34,30,27,31,27,24,89,88,86,29.99,29.77,14,2,21,0.00
2013-1-29,50,38,29,46,35,25,89,88,87,29.94,29.40,15,4,22,0.38
2013-1-30,35,31,19,32,28,15,90,89,87,29.43,29.07,12,1,15,0.25
2013-1-31,19,15,14,15,11,8,88,84,74,29.79,29.18,0,0,0,0.00
2013-2-1,15,13,9,10,8,4,86,81,71,30.06,29.78,16,2,31,0.00
2013-2-2,23,9,-1,10,3,-6,85,77,53,30.02,29.95,16,1,21,0.00
2013-2-3,17,11,3,12,6,-2,86,78,68,29.95,29.74,17,5,34,0.00
2013-2-4,24,13,5,13,6,1,82,75,58,29.92,29.85,10,1,20,0.00
2013-2-5,22,14,2,18,9,-3,85,80,69,29.94,29.63,19,4,31,0.00
2013-2-6,28,19,11,18,11,5,86,73,55,30.18,29.94,12,2,23,0.00
2013-2-7,29,25,20,25,21,16,88,87,84,30.16,30.02,0,0,0,0.00
2013-2-8,27,17,-2,17,12,-6,87,79,65,30.34,30.03,14,1,17,0.00
2013-2-9,34,12,-12,18,3,-16,85,70,46,30.36,30.14,12,2,22,0.00
2013-2-10,37,29,16,33,22,11,88,76,60,30.15,29.47,18,5,30,0.02
2013-2-11,40,34,26,36,30,20,89,86,76,29.74,29.31,25,8,36,0.04
2013-2-12,27,25,24,22,19,17,85,80,74,29.91,29.74,21,5,34,0.00
2013-2-13,38,30,23,28,25,18,85,79,68,29.80,29.62,13,3,29,0.00
2013-2-14,35,31,22,32,27,18,89,87,82,29.80,29.54,8,1,16,0.08
2013-2-15,22,19,14,18,13,8,85,79,69,30.06,29.80,18,5,25,0.00
2013-2-16,25,11,-8,14,4,-13,86,74,48,30.10,29.99,12,1,15,0.02
2013-2-17,20,9,-9,13,3,-14,84,77,64,30.14,30.05,8,1,8,0.00
2013-2-18,38,28,16,33,18,8,88,67,56,30.05,29.39,18,9,29,0.04
2013-2-19,40,26,14,36,22,10,89,87,84,29.80,29.15,33,12,44,0.06
2013-2-20,17,13,10,13,8,4,87,80,74,30.24,29.80,24,9,34,0.00
2013-2-21,29,16,11,14,9,6,84,72,51,30.38,30.23,11,1,18,0.00
2013-2-22,29,25,16,24,21,12,87,85,80,30.25,29.76,14,2,20,0.00
2013-2-23,33,28,24,27,24,21,89,86,74,29.80,29.71,8,0,15,0.02
2013-2-24,34,27,15,27,22,12,89,83,66,30.09,29.77,15,2,18,0.02
2013-2-25,36,31,27,26,24,22,88,77,60,30.15,30.07,10,1,20,0.00
2013-2-26,36,30,23,25,23,17,83,75,63,30.13,29.72,16,2,28,0.00
2013-2-27,36,32,30,30,28,25,89,85,77,29.72,29.60,9,1,25,0.00
2013-2-28,31,29,23,28,23,14,89,78,66,30.04,29.65,11,1,23,0.02
2013-3-1,26,19,14,15,11,6,79,71,63,30.17,30.04,16,3,29,0.00
2013-3-2,25,16,7,16,10,2,82,74,64,30.14,30.05,17,3,22,0.00
2013-3-3,25,11,-8,16,5,-12,88,75,62,30.05,29.99,16,2,22,0.00
2013-3-4,30,13,-6,18,4,-10,88,71,47,30.12,30.04,14,2,25,0.00
2013-3-5,38,18,-4,22,10,-9,86,73,52,30.11,29.96,12,1,27,0.00
2013-3-6,45,32,24,30,26,18,88,78,55,30.22,30.03,14,2,21,0.00
2013-3-7,29,25,22,22,18,16,87,76,65,30.44,30.22,14,3,36,0.00
2013-3-8,47,24,9,31,17,5,87,76,48,30.51,30.37,11,1,12,0.02
2013-3-9,44,32,16,32,22,13,88,70,46,30.37,29.95,14,4,20,0.21
2013-3-10,41,37,34,38,34,32,89,88,82,29.96,29.78,12,3,62,0.57
2013-3-11,51,39,32,44,35,29,89,88,74,29.81,29.44,12,2,62,0.47
2013-3-12,32,26,21,29,23,18,89,87,79,29.85,29.50,0,0,0,0.00
2013-3-13,28,22,17,18,16,13,88,77,59,30.19,29.84,61,3,61,0.02
2013-3-14,35,26,12,23,17,8,87,69,52,30.23,29.99,15,3,20,0.08
2013-3-15,31,26,20,21,16,10,75,67,59,29.96,29.91,19,4,25,0.02
2013-3-16,30,20,12,16,11,4,84,69,53,30.02,29.89,14,2,24,0.02
2013-3-17,32,21,13,17,7,4,87,57,35,30.32,30.01,20,3,35,0.00
2013-3-18,40,26,14,26,17,6,87,71,43,30.21,29.49,20,5,32,0.00
2013-3-19,30,24,20,27,20,15,88,84,71,29.82,29.44,19,6,28,0.00
2013-3-20,24,22,18,19,14,9,87,73,62,29.87,29.81,22,8,30,0.00
2013-3-21,26,24,22,22,19,16,88,80,70,29.94,29.81,18,6,26,0.00
2013-3-22,30,26,21,24,21,16,87,79,74,30.05,29.92,16,5,34,0.00
2013-3-23,39,30,25,27,23,20,85,76,56,30.12,30.05,14,3,25,0.00
2013-3-24,39,30,20,26,20,13,86,68,44,30.09,29.85,11,1,22,0.00
2013-3-25,39,31,21,27,24,15,83,74,59,30.00,29.82,19,3,27,0.00
2013-3-26,41,34,29,30,26,22,88,74,50,30.14,30.00,20,5,29,0.00
2013-3-27,40,34,23,29,26,20,89,74,61,30.22,30.14,19,7,25,0.00
2013-3-28,43,34,24,31,24,19,88,68,47,30.28,30.21,57,3,57,0.00
2013-3-29,45,32,16,35,20,13,88,65,39,30.30,30.22,29,2,29,0.00
2013-3-30,49,33,17,35,20,14,86,63,32,30.22,29.84,15,3,64,0.00
2013-3-31,42,34,26,34,28,18,89,80,70,29.75,29.58,26,9,37,0.04
2013-4-1,27,23,15,19,16,7,88,74,60,30.07,29.74,28,11,43,0.00
2013-4-2,30,25,16,19,14,8,75,64,53,30.25,30.03,24,8,31,0.00
2013-4-3,38,26,15,18,14,8,78,61,42,30.43,30.25,18,3,27,0.00
2013-4-4,47,35,24,33,22,9,88,62,40,30.28,29.94,19,5,30,0.02
2013-4-5,36,30,24,28,20,16,84,66,49,30.24,30.02,18,4,27,0.00
2013-4-6,44,32,21,30,24,16,86,74,56,30.22,29.58,25,6,36,0.04
2013-4-7,48,38,28,43,32,24,89,80,56,30.05,29.42,20,7,31,0.14
2013-4-8,41,34,26,36,30,23,89,85,72,30.05,29.78,13,1,29,0.27
2013-4-9,43,37,32,38,34,30,89,88,83,30.12,29.99,6,0,12,0.20
2013-4-10,32,32,32,30,30,29,89,89,89,30.12,30.06,5,0,5,0.00
2013-4-11,34,30,29,25,23,20,86,74,59,30.02,29.81,16,5,33,0.02
2013-4-12,38,32,28,33,28,24,89,85,81,29.81,29.61,15,1,24,0.27
2013-4-13,37,32,30,32,28,25,89,85,69,29.92,29.69,18,3,34,0.10
2013-4-14,48,35,22,29,25,19,89,68,45,30.08,29.92,19,3,29,0.00
2013-4-15,51,44,37,48,39,27,89,80,68,29.93,29.75,16,5,25,0.26
2013-4-16,49,40,32,40,30,26,88,71,51,30.34,29.88,20,4,31,0.00
2013-4-17,49,36,23,34,29,20,89,75,53,30.41,30.10,15,2,22,0.04
2013-4-18,51,43,36,47,40,32,89,88,83,30.10,29.38,15,1,22,0.51
2013-4-19,56,39,26,53,32,16,89,77,60,29.68,29.24,26,10,45,0.06
2013-4-20,26,26,26,18,18,18,74,73,72,29.68,29.68,15,14,25,0.00
2013-4-21,46,38,26,19,18,17,74,48,31,30.52,29.68,13,13,14,0.00
2013-4-22,66,53,34,37,33,28,81,50,32,30.29,30.14,14,4,31,0.00
2013-4-23,59,45,32,46,35,29,89,70,48,30.15,29.88,16,5,34,0.25
2013-4-24,46,36,28,31,27,21,89,74,45,30.02,29.92,16,3,29,0.10
2013-4-25,48,38,29,34,28,23,86,69,46,30.29,29.93,22,6,31,0.00
2013-4-26,63,47,28,41,32,23,85,59,37,30.37,30.17,18,4,32,0.00
2013-4-27,73,59,43,50,45,36,79,63,34,30.25,30.12,14,3,33,0.04
2013-4-28,76,56,35,48,40,31,88,59,30,30.12,29.84,14,2,29,0.00
2013-4-29,68,56,47,55,50,43,88,81,59,29.91,29.86,9,2,34,0.08
2013-4-30,74,63,52,60,55,49,88,77,58,29.94,29.81,23,7,38,0.17
2013-5-1,78,66,48,61,55,38,85,67,54,30.30,29.93,16,4,34,0.00
2013-5-2,71,50,38,51,40,33,86,70,46,30.32,30.17,20,2,32,0.00
2013-5-3,80,57,36,56,44,32,87,65,41,30.24,30.07,12,1,33,0.00
2013-5-4,81,66,46,52,43,26,83,46,25,30.16,30.06,16,3,35,0.00
2013-5-5,82,62,38,48,39,29,86,47,26,30.17,30.05,15,2,32,0.00
2013-5-6,79,63,40,46,40,33,84,46,25,30.14,30.03,21,1,34,0.00
2013-5-7,84,64,40,46,39,34,83,46,19,30.13,30.01,15,1,31,0.00
2013-5-8,82,65,44,51,44,39,84,50,26,30.08,30.01,14,1,36,0.00
2013-5-9,78,57,42,52,44,38,87,65,34,30.05,29.96,17,1,31,0.10
2013-5-10,49,41,37,45,37,34,88,86,84,30.06,29.97,11,0,18,0.67
2013-5-11,51,39,31,44,35,28,89,85,74,29.97,29.73,10,1,33,0.02
2013-5-16,65,56,39,46,40,32,83,58,44,30.11,30.01,16,3,31,0.00
2013-5-17,75,53,34,47,40,31,89,65,42,30.24,30.11,10,1,32,0.00
2013-5-18,72,59,50,50,45,38,80,61,43,30.23,30.06,11,2,20,0.00
2013-5-19,85,71,59,65,55,44,75,57,47,30.06,29.87,12,2,31,1.58
2013-5-20,87,71,63,70,63,55,88,76,52,29.92,29.72,12,1,21,0.22
2013-5-21,82,66,58,67,60,53,88,81,54,29.82,29.69,16,1,37,0.39
2013-5-22,66,58,52,62,55,49,89,88,84,29.78,29.70,6,0,14,0.35
2013-5-23,53,46,38,49,41,33,89,81,61,30.27,29.77,18,3,35,0.66
2013-5-24,56,43,30,38,33,27,89,70,44,30.43,30.27,16,2,32,0.00
2013-5-25,65,48,29,44,35,19,89,66,38,30.47,30.35,16,1,31,0.00
2013-5-26,38,34,31,34,30,28,88,87,84,30.39,29.91,0,0,15,0.40
2013-5-27,72,69,67,40,39,39,37,34,30,30.25,30.13,2,1,3,0.00
2013-5-28,60,56,52,56,49,45,87,78,70,29.93,29.76,1,0,4,0.29
2013-6-2,59,45,35,55,41,32,89,84,71,30.08,29.65,20,6,32,0.06
2013-6-3,63,47,32,46,38,29,89,72,40,30.18,30.06,17,3,34,0.03
2013-6-4,66,51,32,47,39,28,89,67,39,30.28,30.13,10,0,25,0.00
2013-6-5,62,54,49,54,48,38,87,79,66,30.31,30.14,8,0,14,0.00
2013-6-6,72,60,50,52,44,36,77,57,38,30.15,30.00,12,2,32,0.01
2013-6-7,75,60,43,50,44,39,88,59,19,30.06,29.95,13,0,27,0.00
2013-6-8,71,58,41,57,46,37,92,68,36,30.13,29.98,10,1,19,0.02
2013-6-9,77,62,40,59,50,37,88,67,47,30.18,30.05,11,2,29,0.00
2013-6-10,75,65,59,64,57,50,87,75,59,30.05,29.86,10,1,19,0.00
2013-6-11,78,65,58,72,58,50,88,80,61,29.95,29.87,13,1,31,0.01
2013-6-12,83,67,52,64,54,48,89,68,37,29.99,29.81,10,1,28,0.01
2013-6-13,74,61,50,62,53,46,88,76,60,30.08,29.80,19,2,36,0.02
2013-6-14,75,59,42,51,44,34,89,63,32,30.19,30.07,14,1,32,0.00
2013-6-15,78,60,41,60,50,37,88,70,44,30.12,29.89,10,0,34,0.00
2013-6-16,78,64,56,66,58,52,89,81,53,29.92,29.79,13,2,31,0.63
2013-6-17,73,60,52,60,54,48,89,79,59,30.08,29.87,13,1,20,0.01
2013-6-18,73,59,43,56,46,39,89,67,32,30.18,30.07,15,1,31,0.00
2013-6-19,77,58,39,52,44,35,89,64,34,30.25,30.16,14,1,33,0.03
2013-6-20,85,66,43,60,51,40,89,64,35,30.23,30.16,10,1,32,0.00
2013-6-21,85,70,53,67,60,50,89,70,52,30.23,29.99,18,3,33,0.00
2013-6-22,82,67,56,68,61,57,92,81,62,30.14,30.02,11,2,30,0.00
2013-6-23,87,78,61,72,67,54,88,69,53,30.09,29.92,12,2,31,0.03
2013-6-24,91,77,69,74,68,65,86,74,59,30.04,29.92,12,2,36,0.00
2013-6-25,81,73,64,69,65,60,87,77,63,29.94,29.88,12,2,34,0.00
2013-6-26,95,74,50,71,63,53,88,72,39,29.93,29.81,11,0,29,0.00
2013-6-27,87,71,62,69,63,56,89,78,49,29.86,29.73,12,1,31,0.02
2013-6-28,79,67,56,67,60,52,92,79,62,29.73,29.63,8,1,12,0.00
2013-6-29,78,67,60,62,59,53,89,75,56,29.87,29.68,10,1,28,0.00
2013-6-30,80,67,51,58,52,47,89,62,35,30.11,29.86,21,1,30,0.15
2013-7-1,81,63,45,60,49,39,89,64,39,30.23,30.10,9,1,30,0.00
2013-7-2,80,60,41,54,46,32,89,65,32,30.24,30.12,10,0,31,0.00
2013-7-3,82,66,51,64,54,46,87,67,44,30.18,30.08,9,1,32,0.00
2013-7-4,80,68,58,66,60,52,89,78,55,30.15,30.06,10,1,32,0.16
2013-7-5,90,74,56,68,61,57,88,67,41,30.14,30.05,14,2,32,0.00
2013-7-6,90,76,64,67,61,51,82,63,40,30.13,30.03,13,2,35,0.00
2013-7-7,88,73,58,70,63,55,89,74,46,30.06,29.98,10,1,31,0.13
2013-7-8,76,70,66,71,66,56,90,88,82,30.06,29.98,9,1,22,0.57
2013-7-9,85,74,67,73,68,64,90,82,64,30.05,29.80,9,0,12,0.02
2013-7-10,73,68,56,68,62,50,90,82,62,30.02,29.76,17,5,30,0.22
2013-7-11,78,64,50,61,55,47,90,73,50,30.16,30.02,13,2,34,0.79
2013-7-12,88,67,47,63,54,44,90,67,34,30.30,30.12,9,1,18,0.79
2013-7-13,90,73,58,72,60,52,87,66,42,30.28,30.17,13,1,34,0.79
2013-7-14,92,74,57,70,62,54,89,69,43,30.35,30.26,9,1,32,0.79
2013-7-15,94,78,61,72,65,58,89,69,43,30.37,30.30,9,0,32,0.00
2013-7-16,95,79,64,75,69,55,89,72,48,30.36,30.26,13,1,32,0.00
2013-7-17,95,83,73,76,72,68,87,70,46,30.30,30.18,13,2,32,0.00
2013-7-18,93,82,71,77,72,68,88,74,54,30.20,29.87,17,2,34,0.79
2013-7-19,87,79,65,75,70,60,88,73,62,29.88,29.72,19,3,35,0.00
2013-7-20,74,65,49,61,54,45,93,69,42,30.07,29.82,18,2,33,0.78
2013-7-21,80,61,41,61,52,38,89,73,42,30.11,30.01,10,1,19,0.00
2013-7-22,91,74,62,68,63,53,86,69,50,30.01,29.73,14,2,33,0.00
2013-7-23,75,62,52,66,55,46,89,76,62,30.00,29.71,20,4,34,0.28
2013-7-24,75,59,42,55,48,35,89,70,47,30.13,30.00,11,1,32,0.00
2013-7-25,83,64,44,60,52,35,90,68,41,30.14,30.05,11,1,34,0.39
2013-7-26,78,65,57,69,58,53,89,80,63,30.08,29.90,13,2,35,0.41
2013-7-27,62,59,55,58,55,50,90,87,80,29.92,29.83,11,2,31,0.00
2013-7-28,66,56,52,56,52,50,98,86,65,29.95,29.80,14,1,20,0.02
2013-7-29,70,59,51,59,53,48,90,83,63,30.23,29.95,16,2,24,0.02
2013-7-30,79,60,45,62,54,43,90,79,51,30.28,30.16,9,0,16,0.04
2013-7-31,79,68,55,65,60,52,90,75,57,30.16,29.90,13,1,30,1.80
2013-8-1,74,64,56,64,57,51,90,78,54,29.93,29.83,16,2,31,1.57
2013-8-2,75,63,51,63,56,49,90,78,54,29.93,29.81,14,2,23,0.00
2013-8-3,69,60,49,58,53,46,90,79,63,30.10,29.93,16,3,35,0.00
2013-8-4,73,61,48,54,50,38,90,70,44,30.22,30.10,13,2,33,0.00
2013-8-5,76,58,42,57,50,39,90,76,45,30.13,29.91,7,1,14,0.08
2013-8-6,80,69,58,66,61,52,88,75,63,29.91,29.81,10,2,31,1.49
2013-8-7,75,67,55,66,61,54,90,82,67,29.99,29.69,17,3,33,0.00
2013-8-8,79,62,45,61,51,43,90,72,46,30.06,29.99,12,1,35,0.02
2013-8-9,77,62,46,62,52,44,90,74,53,30.06,29.92,18,3,39,0.00
2013-8-10,74,59,44,57,50,41,90,74,48,30.16,30.05,13,2,26,0.00
2013-8-11,79,62,46,63,53,44,98,75,46,30.12,30.03,10,1,30,0.00
2013-8-12,80,64,51,63,56,48,91,78,51,30.05,29.84,15,2,28,0.00
2013-8-13,65,57,51,51,47,38,81,70,54,30.12,29.95,16,2,34,0.02
2013-8-14,70,57,42,57,48,39,90,73,51,30.18,30.09,14,2,31,0.00
2013-8-15,78,61,46,59,50,39,90,71,40,30.13,30.06,11,2,31,0.00
2013-8-16,83,62,44,62,51,36,91,72,40,30.21,30.12,8,0,30,0.00
2013-8-17,90,65,46,61,52,43,91,68,35,30.27,30.15,10,1,33,0.02
2013-8-18,86,66,48,61,53,45,91,68,37,30.23,30.07,18,1,33,0.00
2013-8-19,90,69,54,64,57,50,89,70,46,30.11,30.00,15,2,31,0.00
2013-8-20,88,75,64,68,63,51,81,67,47,30.08,30.01,18,2,33,0.00
2013-8-21,91,78,68,70,65,58,87,67,49,30.04,29.90,16,3,29,0.12
2013-8-22,81,69,53,69,61,50,91,78,42,30.13,29.91,12,1,29,0.11
2013-8-23,82,64,45,62,53,42,91,72,44,30.23,30.13,10,1,33,0.00
2013-8-24,86,67,50,63,55,47,89,68,39,30.30,30.21,10,1,21,0.00
2013-8-25,92,75,54,72,62,51,90,65,49,30.22,30.01,14,3,36,0.06
2013-8-26,88,77,65,72,67,62,90,74,51,30.08,29.96,14,2,30,0.12
2013-8-27,80,71,64,72,67,61,90,87,73,30.01,29.85,4,0,17,0.50
2013-8-28,90,74,65,74,67,56,91,80,54,30.06,29.85,10,1,32,0.00
2013-8-29,92,74,58,72,65,55,91,75,46,30.10,29.97,10,1,28,0.00
2013-8-30,79,71,67,73,66,63,91,86,78,29.98,29.77,14,2,32,0.48
2013-8-31,81,69,59,67,62,51,91,79,56,29.91,29.82,10,1,42,0.71
2013-9-1,77,66,58,67,62,52,91,85,64,29.87,29.70,10,1,31,0.10
2013-9-2,60,56,53,56,52,49,91,86,78,29.93,29.79,16,5,32,0.93
2013-9-3,72,62,49,58,52,46,91,73,46,30.02,29.92,12,3,27,0.00
2013-9-4,70,60,45,61,53,42,91,79,47,30.16,29.93,15,2,20,0.79
2013-9-5,68,52,38,50,42,33,91,72,44,30.33,30.16,10,1,16,0.00
2013-9-6,77,60,41,61,50,32,91,71,49,30.25,29.97,12,1,17,0.79
2013-9-7,79,70,64,71,65,55,91,84,69,30.02,29.84,9,1,34,0.18
2013-9-8,76,62,49,62,53,46,91,74,46,30.17,30.01,10,1,31,0.00
2013-9-9,78,65,55,69,59,49,87,80,70,30.06,29.74,10,2,25,0.02
2013-9-10,90,79,68,73,70,65,90,75,53,29.98,29.74,14,2,32,0.47
2013-9-11,80,70,65,69,64,56,91,83,65,29.99,29.90,11,2,33,0.67
2013-9-12,67,59,50,64,53,44,91,80,60,30.06,29.91,15,2,32,1.60
2013-9-13,61,50,38,47,42,35,89,73,48,30.18,30.06,12,2,28,0.00
2013-9-14,68,51,35,54,44,32,91,76,54,30.16,30.01,12,1,20,0.02
2013-9-15,61,56,50,57,52,47,91,87,79,30.20,29.99,13,1,29,0.16
2013-9-16,64,50,38,47,41,32,90,74,45,30.42,30.20,10,1,30,0.03
2013-9-17,72,51,34,49,40,32,91,72,37,30.41,30.18,6,1,33,0.00
2013-9-18,73,62,44,58,51,39,87,70,54,30.18,29.95,11,2,33,0.00
2013-9-19,83,71,62,71,64,55,91,78,64,30.01,29.79,11,2,28,1.67
2013-9-20,75,67,59,67,64,55,91,89,84,29.79,29.67,13,2,32,0.12
2013-9-21,59,54,47,56,48,40,91,83,66,29.91,29.72,18,3,34,0.06
2013-9-22,54,48,43,44,41,38,86,76,64,30.11,29.91,11,1,32,0.04
2013-9-23,68,48,31,49,39,29,91,76,46,30.21,30.08,11,1,16,0.00
2013-9-24,74,51,34,54,43,30,91,77,45,30.17,30.02,8,1,30,0.00
2013-9-25,73,53,36,53,44,33,91,76,41,30.06,30.00,5,0,14,0.00
2013-9-26,80,54,35,56,43,33,91,73,33,30.15,30.03,9,0,15,0.00
2013-9-27,82,60,39,58,48,34,92,69,34,30.25,30.14,10,1,30,0.04
2013-9-28,78,66,55,58,54,50,87,68,47,30.16,29.85,15,4,35,0.00
2013-9-29,72,59,41,58,49,35,91,73,45,30.05,29.84,20,3,25,0.13
2013-9-30,72,54,36,55,44,33,91,74,44,30.02,29.83,9,1,23,0.39
2013-10-1,80,65,54,63,56,47,88,74,52,29.89,29.74,12,3,24,0.00
2013-10-2,72,59,42,60,46,40,91,67,34,30.08,29.86,11,1,30,0.00
2013-10-3,74,56,42,60,51,39,91,84,60,30.08,29.86,10,1,17,0.40
2013-10-4,59,57,55,56,54,51,92,91,89,30.11,29.92,8,0,14,0.95
2013-10-5,60,56,54,55,54,50,92,91,85,30.10,29.87,9,1,21,0.36
2013-10-6,70,59,50,65,56,47,92,91,84,29.87,29.63,15,1,28,1.82
2013-10-7,59,49,39,49,45,36,100,87,67,30.06,29.56,17,4,30,0.20
2013-10-8,70,52,34,56,43,32,99,74,44,30.21,30.06,9,2,18,0.49
2013-10-9,77,61,45,57,49,38,91,67,43,30.26,30.17,12,2,30,0.02
2013-10-10,79,55,39,54,45,34,92,73,33,30.23,30.11,6,0,12,0.00
2013-10-11,76,54,36,55,43,33,91,71,35,30.17,30.05,6,0,14,0.00
2013-10-12,80,63,44,59,49,39,89,64,37,30.06,29.93,13,2,34,0.02
2013-10-13,61,52,39,57,45,32,90,80,67,30.39,30.04,14,2,23,0.79
2013-10-14,63,45,30,47,37,28,91,75,45,30.46,30.28,9,1,16,0.79
2013-10-15,61,48,31,55,43,28,91,84,65,30.29,29.72,10,2,26,0.00
2013-10-16,58,51,47,55,48,37,91,89,82,29.85,29.68,13,3,31,0.08
2013-10-17,53,46,40,45,41,33,91,83,62,29.87,29.74,12,1,18,0.10
2013-10-18,56,44,33,50,41,31,91,88,72,29.80,29.73,13,0,27,0.27
2013-10-19,56,43,33,45,38,29,91,85,60,29.79,29.67,12,2,23,0.72
2013-10-20,54,43,35,44,37,32,91,81,55,29.82,29.67,9,1,30,0.05
2013-10-21,54,42,33,45,39,30,91,88,75,29.77,29.62,16,3,32,0.43
2013-10-22,45,37,32,40,34,30,91,88,74,29.86,29.66,20,4,28,0.41
2013-10-23,45,35,32,38,31,29,91,85,57,29.86,29.81,19,2,32,0.87
2013-10-24,45,37,32,39,33,30,91,87,71,30.12,29.84,17,4,34,0.00
2013-10-25,45,38,31,39,32,28,99,80,59,30.22,29.80,16,2,26,0.00
2013-10-30,54,51,40,45,43,31,89,74,70,29.95,29.72,10,3,14,0.00
2013-10-31,63,58,55,57,55,51,91,91,90,29.54,29.04,8,1,15,0.63
2013-11-1,55,47,37,52,44,33,92,89,84,29.68,28.94,21,6,35,0.63
2013-11-2,44,38,29,37,32,26,89,82,69,30.16,29.67,10,0,20,0.02
2013-11-3,48,35,16,32,28,16,91,76,51,30.39,30.15,10,2,30,0.00
2013-11-4,51,42,34,33,29,19,82,63,41,30.41,30.17,35,7,69,0.02
2013-11-5,56,48,46,47,40,32,87,73,60,30.28,30.01,14,2,20,0.02
2013-11-6,53,46,37,50,42,30,91,88,79,30.01,29.65,22,5,31,0.79
2013-11-7,38,36,33,37,30,29,89,81,74,30.08,29.98,15,4,31,0.04
2013-11-8,39,33,29,33,29,25,90,84,66,30.21,30.07,16,0,18,0.11
2013-11-9,46,40,34,42,35,28,90,84,71,30.08,29.64,21,5,28,0.46
2013-11-10,43,39,34,35,32,27,88,76,64,30.22,29.79,30,9,38,0.03
2013-11-11,39,30,26,34,25,15,90,79,64,30.36,29.96,24,5,36,1.02
2013-11-12,28,26,21,23,18,14,88,72,64,30.53,30.36,21,5,31,0.00
2013-11-13,39,30,16,28,21,12,88,70,53,30.43,29.91,20,5,35,0.00
2013-11-14,47,40,35,34,30,26,82,68,58,29.94,29.82,13,4,32,0.00
2013-11-15,56,44,38,39,35,30,85,72,53,29.96,29.84,12,2,32,0.00
2013-11-16,55,46,38,51,41,32,89,82,74,30.03,29.55,26,5,43,0.06
2013-11-17,62,54,43,58,51,40,93,89,84,29.57,28.99,27,7,38,2.44
2013-11-18,43,34,32,40,26,21,89,72,62,30.12,29.27,29,14,44,0.02
2013-11-19,38,31,24,26,22,14,84,70,57,30.37,30.12,20,3,24,0.77
2013-11-20,44,36,30,29,25,18,75,66,49,30.35,30.15,20,4,37,0.02
2013-11-21,43,39,36,37,34,28,90,80,68,30.21,30.16,7,1,14,0.77
2013-11-22,40,32,28,37,28,16,90,86,76,30.36,30.17,15,1,29,0.08
2013-11-23,31,19,15,25,12,0,89,74,63,30.53,29.90,41,10,54,0.00
2013-11-24,22,19,15,15,10,0,81,70,57,30.53,29.89,17,5,28,0.00
2013-11-25,37,29,22,28,24,14,88,79,63,30.14,29.83,19,6,32,0.00
2013-11-26,36,29,21,30,25,14,89,85,75,30.05,29.86,11,1,26,0.00
2013-11-27,25,20,7,17,12,-4,87,70,57,30.18,29.97,32,2,45,0.00
2013-11-28,14,7,3,11,2,-2,87,82,80,30.46,30.16,0,0,6,0.00
2013-11-29,38,23,2,22,16,-2,86,75,60,30.62,29.91,12,2,20,0.00
2013-11-30,37,32,18,30,26,18,88,79,73,30.47,29.89,13,3,21,0.03
2013-12-1,39,32,29,30,28,24,89,83,75,30.12,30.02,5,0,20,0.01
2013-12-2,36,30,28,26,24,21,85,79,75,30.02,29.90,7,0,34,0.03
2013-12-3,29,26,17,26,21,13,89,84,78,29.98,29.85,8,1,22,0.00
2013-12-4,47,35,29,44,32,21,98,89,88,29.92,29.42,17,2,26,0.21
2013-12-5,48,32,21,45,25,13,89,77,69,30.07,29.43,19,7,59,0.01
2013-12-6,21,20,19,14,13,11,83,74,66,30.36,29.91,19,5,28,0.00
2013-12-7,19,17,15,13,9,6,81,71,63,30.54,29.91,18,5,28,0.00
2013-12-8,19,17,15,15,11,0,87,75,67,30.51,29.90,12,2,19,0.00
2013-12-9,28,20,11,23,15,7,89,81,71,30.05,29.75,21,5,36,0.00
2013-12-10,16,14,11,12,10,2,86,81,75,30.03,29.74,28,6,44,0.00
2013-12-11,20,12,11,10,7,-2,85,80,74,30.34,29.91,18,6,28,0.00
2013-12-12,20,15,10,13,10,4,86,81,70,30.33,29.90,51,4,74,0.00
2013-12-13,19,12,4,12,3,-4,78,68,56,30.40,29.61,22,3,29,0.00
2013-12-14,20,14,4,14,9,-3,86,80,73,30.40,29.86,8,1,16,0.00
2013-12-15,21,17,10,17,13,5,88,85,78,30.00,29.73,16,1,35,0.00
2013-12-16,23,12,-3,10,5,-8,86,73,51,30.13,29.96,12,3,22,0.00
2013-12-17,27,21,14,22,17,10,89,86,82,29.95,29.78,10,2,28,0.00
2013-12-18,26,22,14,22,16,10,89,79,75,30.05,29.73,20,3,30,0.00
2013-12-19,30,24,17,26,19,14,89,83,78,30.09,29.71,13,1,20,0.00
2013-12-20,25,21,18,20,17,14,88,85,79,30.04,29.84,4,0,22,0.00
2013-12-21,29,24,20,23,20,16,89,85,77,29.98,29.82,8,0,16,0.00
2013-12-22,21,17,14,16,13,3,85,82,78,30.09,29.83,0,0,20,0.00
2013-12-23,19,12,7,12,7,-1,85,81,71,30.37,30.08,15,1,22,0.00
2013-12-24,8,2,-6,3,-4,-11,80,79,79,30.40,30.36,2,0,22,0.00
2013-12-30,11,10,10,6,5,-2,84,79,77,30.11,29.90,8,3,21,0.00
2013-12-31,10,9,1,6,4,-4,85,79,69,30.30,29.90,32,5,42,0.00
2014-1-1,13,7,2,2,-1,-6,80,70,48,30.43,29.91,11,1,22,0.00
2014-1-2,6,-6,-16,0,-12,-22,80,76,71,30.40,29.91,0,0,14,0.00